createdAt,value
2022-09-25T00:01:43.633Z,-20335.19
2022-09-25T00:04:12.132Z,-20333.66
2022-09-25T00:06:41.458Z,-20336.09
2022-09-25T00:09:10.307Z,-20337.31
2022-09-25T00:11:38.551Z,-20340.38
2022-09-25T00:14:06.274Z,-20339.00
2022-09-25T00:16:34.065Z,-20339.44
2022-09-25T00:19:20.813Z,-20340.81
2022-09-25T00:21:52.758Z,-20338.69
2022-09-25T00:24:20.632Z,-20336.25
2022-09-25T00:26:48.175Z,-20335.94
2022-09-25T00:29:17.578Z,-20336.09
2022-09-25T00:31:45.118Z,-20335.78
2022-09-25T00:34:14.301Z,-20335.34
2022-09-25T00:36:42.090Z,-20336.41
2022-09-25T00:39:09.631Z,-20335.94
2022-09-25T00:41:37.215Z,-20339.75
2022-09-25T00:44:05.585Z,-20336.41
2022-09-25T00:46:37.821Z,-20339.59
2022-09-25T00:49:11.612Z,-20339.31
2022-09-25T00:51:44.733Z,-20342.66
2022-09-25T00:54:17.242Z,-20339.59
2022-09-25T00:56:48.428Z,-20343.25
2022-09-25T00:59:19.737Z,-20344.03
2022-09-25T01:01:47.927Z,-20341.59
2022-09-25T01:04:18.279Z,-20348.31
2022-09-25T01:06:47.430Z,-20341.88
2022-09-25T01:09:15.144Z,-20342.97
2022-09-25T01:11:42.689Z,-20339.31
2022-09-25T01:14:11.181Z,-20340.81
2022-09-25T01:16:46.218Z,-20340.53
2022-09-25T01:19:27.989Z,-20337.31
2022-09-25T01:22:06.141Z,-20335.78
2022-09-25T01:24:45.349Z,-20336.56
2022-09-25T01:27:37.437Z,-20332.13
2022-09-25T01:30:09.743Z,-20334.56
2022-09-25T01:32:52.549Z,-20334.25
2022-09-25T01:35:32.237Z,-20336.09
2022-09-25T01:38:06.145Z,-20330.28
2022-09-25T01:40:38.832Z,-20330.59
2022-09-25T01:43:14.792Z,-20336.72
2022-09-25T01:45:47.573Z,-20331.81
2022-09-25T01:48:18.923Z,-20332.88
2022-09-25T01:50:50.807Z,-20328.91
2022-09-25T01:53:22.790Z,-20332.75
2022-09-25T01:55:56.933Z,-20330.59
2022-09-25T01:58:29.726Z,-20335.03
2022-09-25T02:01:04.967Z,-20338.22
2022-09-25T02:03:40.206Z,-20340.06
2022-09-25T02:06:11.107Z,-20333.34
2022-09-25T02:08:44.009Z,-20335.34
2022-09-25T02:11:14.219Z,-20344.47
2022-09-25T02:13:47.748Z,-20336.72
2022-09-25T02:16:20.594Z,-20337.63
2022-09-25T02:19:07.038Z,-20347.06
2022-09-25T02:21:45.522Z,-20347.53
2022-09-25T02:24:20.635Z,-20349.97
2022-09-25T02:26:49.151Z,-20344.63
2022-09-25T02:29:18.531Z,-20339.75
2022-09-25T02:31:50.863Z,-20348.91
2022-09-25T02:34:18.729Z,-20345.84
2022-09-25T02:36:46.438Z,-20342.50
2022-09-25T02:39:17.013Z,-20340.69
2022-09-25T02:42:04.182Z,-20337.91
2022-09-25T02:44:44.337Z,-20343.72
2022-09-25T02:47:24.707Z,-20333.19
2022-09-25T02:50:00.069Z,-20335.19
2022-09-25T02:52:34.599Z,-20335.19
2022-09-25T02:55:08.450Z,-20339.00
2022-09-25T02:57:43.608Z,-20344.63
2022-09-25T03:00:13.203Z,-20348.91
2022-09-25T03:02:49.674Z,-20346.78
2022-09-25T03:05:20.563Z,-20346.31
2022-09-25T03:08:05.857Z,-20342.81
2022-09-25T03:10:36.506Z,-20341.13
2022-09-25T03:13:18.086Z,-20347.06
2022-09-25T03:15:47.757Z,-20340.38
2022-09-25T03:18:17.065Z,-20337.31
2022-09-25T03:20:45.023Z,-20335.19
2022-09-25T03:23:12.625Z,-20332.75
2022-09-25T03:25:40.308Z,-20337.47
2022-09-25T03:28:11.549Z,-20340.06
2022-09-25T03:30:40.956Z,-20336.84
2022-09-25T03:33:10.334Z,-20341.88
2022-09-25T03:35:39.850Z,-20341.28
2022-09-25T03:38:10.434Z,-20338.06
2022-09-25T03:40:38.071Z,-20336.41
2022-09-25T03:45:32.212Z,-20330.91
2022-09-25T03:47:59.752Z,-20332.44
2022-09-25T03:50:27.649Z,-20327.09
2022-09-25T03:52:57.059Z,-20326.94
2022-09-25T03:55:26.033Z,-20333.97
2022-09-25T03:57:54.305Z,-20329.38
2022-09-25T04:00:21.824Z,-20331.22
2022-09-25T04:02:50.316Z,-20331.53
2022-09-25T04:05:20.076Z,-20330.91
2022-09-25T04:07:48.286Z,-20334.25
2022-09-25T04:10:17.384Z,-20339.75
2022-09-25T04:12:45.003Z,-20337.00
2022-09-25T04:15:12.627Z,-20339.44
2022-09-25T04:17:40.198Z,-20347.69
2022-09-25T04:20:09.456Z,-20345.25
2022-09-25T04:22:37.008Z,-20349.22
2022-09-25T04:25:05.239Z,-20351.03
2022-09-25T04:27:34.402Z,-20352.88
2022-09-25T04:30:02.442Z,-20348.59
2022-09-25T04:32:47.406Z,-20346.47
2022-09-25T04:35:15.170Z,-20345.56
2022-09-25T04:37:42.845Z,-20342.81
2022-09-25T04:40:11.544Z,-20340.06
2022-09-25T04:42:43.084Z,-20338.38
2022-09-25T04:45:11.403Z,-20339.91
2022-09-25T04:47:38.990Z,-20338.53
2022-09-25T04:50:07.589Z,-20334.25
2022-09-25T04:52:35.122Z,-20334.25
2022-09-25T04:55:04.204Z,-20332.75
2022-09-25T04:57:56.772Z,-20337.00
2022-09-25T05:00:21.661Z,-20340.53
2022-09-25T05:02:50.049Z,-20345.84
2022-09-25T05:05:18.476Z,-20348.91
2022-09-25T05:07:54.158Z,-20342.81
2022-09-25T05:10:22.218Z,-20338.53
2022-09-25T05:12:55.134Z,-20332.13
2022-09-25T05:15:24.167Z,-20335.03
2022-09-25T05:17:53.412Z,-20337.31
2022-09-25T05:20:21.062Z,-20334.56
2022-09-25T05:22:48.605Z,-20337.47
2022-09-25T05:25:16.504Z,-20331.06
2022-09-25T05:27:44.611Z,-20331.22
2022-09-25T05:30:12.913Z,-20341.59
2022-09-25T05:32:49.337Z,-20339.16
2022-09-25T05:35:18.452Z,-20337.47
2022-09-25T05:37:46.018Z,-20333.34
2022-09-25T05:40:15.492Z,-20342.19
2022-09-25T05:42:44.101Z,-20344.19
2022-09-25T05:45:12.929Z,-20340.69
2022-09-25T05:47:43.376Z,-20337.31
2022-09-25T05:50:13.676Z,-20340.38
2022-09-25T05:52:41.993Z,-20340.69
2022-09-25T05:55:11.016Z,-20334.25
2022-09-25T05:57:39.214Z,-20333.97
2022-09-25T06:00:09.886Z,-20335.34
2022-09-25T06:02:37.493Z,-20333.97
2022-09-25T06:05:07.118Z,-20338.53
2022-09-25T06:07:34.647Z,-20337.91
2022-09-25T06:10:02.275Z,-20331.97
2022-09-25T06:12:30.187Z,-20335.47
2022-09-25T06:14:58.123Z,-20339.16
2022-09-25T06:17:25.655Z,-20340.69
2022-09-25T06:19:53.378Z,-20339.44
2022-09-25T06:22:22.285Z,-20339.44
2022-09-25T06:24:49.847Z,-20342.50
2022-09-25T06:27:17.479Z,-20344.78
2022-09-25T06:29:45.018Z,-20340.97
2022-09-25T06:32:12.609Z,-20344.63
2022-09-25T06:34:40.166Z,-20342.50
2022-09-25T06:37:07.749Z,-20340.69
2022-09-25T06:39:36.614Z,-20343.56
2022-09-25T06:42:04.589Z,-20346.16
2022-09-25T06:44:32.118Z,-20344.94
2022-09-25T06:46:59.720Z,-20349.38
2022-09-25T06:49:27.351Z,-20344.63
2022-09-25T06:51:54.947Z,-20343.25
2022-09-25T06:54:22.498Z,-20342.66
2022-09-25T06:56:51.516Z,-20345.56
2022-09-25T06:59:19.179Z,-20339.44
2022-09-25T07:01:46.899Z,-20336.56
2022-09-25T07:04:13.839Z,-20337.31
2022-09-25T07:06:41.434Z,-20337.63
2022-09-25T07:09:09.537Z,-20347.22
2022-09-25T07:11:37.077Z,-20340.81
2022-09-25T07:14:05.971Z,-20348.31
2022-09-25T07:16:34.385Z,-20339.91
2022-09-25T07:19:03.993Z,-20343.13
2022-09-25T07:21:32.184Z,-20346.00
2022-09-25T07:24:00.047Z,-20345.72
2022-09-25T07:26:29.591Z,-20345.09
2022-09-25T07:29:00.431Z,-20340.97
2022-09-25T07:31:31.093Z,-20340.38
2022-09-25T07:34:00.178Z,-20341.88
2022-09-25T07:36:28.548Z,-20341.59
2022-09-25T07:38:56.148Z,-20337.91
2022-09-25T07:41:24.181Z,-20341.59
2022-09-25T07:44:06.311Z,-20339.75
2022-09-25T07:46:44.407Z,-20346.78
2022-09-25T07:49:12.290Z,-20347.69
2022-09-25T07:51:39.987Z,-20346.16
2022-09-25T07:54:08.312Z,-20346.78
2022-09-25T07:56:37.999Z,-20345.84
2022-09-25T07:59:05.744Z,-20345.84
2022-09-25T08:01:33.341Z,-20351.03
2022-09-25T08:04:02.867Z,-20349.53
2022-09-25T08:06:31.146Z,-20349.53
2022-09-25T08:08:59.616Z,-20351.34
2022-09-25T08:11:27.980Z,-20355.63
2022-09-25T08:13:55.579Z,-20356.22
2022-09-25T08:16:23.337Z,-20359.28
2022-09-25T08:18:51.523Z,-20355.47
2022-09-25T08:21:21.448Z,-20355.16
2022-09-25T08:23:50.980Z,-20357.16
2022-09-25T08:26:19.354Z,-20361.72
2022-09-25T08:28:46.942Z,-20361.25
2022-09-25T08:31:15.505Z,-20362.63
2022-09-25T08:33:45.451Z,-20362.94
2022-09-25T08:36:13.193Z,-20366.00
2022-09-25T08:38:42.121Z,-20362.03
2022-09-25T08:41:14.692Z,-20363.88
2022-09-25T08:43:47.479Z,-20367.97
2022-09-25T08:46:39.706Z,-20369.19
2022-09-25T08:49:11.278Z,-20364.63
2022-09-25T08:51:44.118Z,-20369.81
2022-09-25T08:54:19.589Z,-20366.00
2022-09-25T08:56:50.574Z,-20365.53
2022-09-25T08:59:26.825Z,-20373.47
2022-09-25T09:01:58.643Z,-20372.09
2022-09-25T09:04:31.924Z,-20376.50
2022-09-25T09:07:25.822Z,-20387.03
2022-09-25T09:09:59.303Z,-20391.59
2022-09-25T09:12:34.337Z,-20386.13
2022-09-25T09:15:16.109Z,-20396.94
2022-09-25T09:17:44.220Z,-20391.91
2022-09-25T09:20:18.502Z,-20391.28
2022-09-25T09:22:50.691Z,-20394.03
2022-09-25T09:25:29.091Z,-20396.63
2022-09-25T09:28:14.590Z,-20383.38
2022-09-25T09:30:51.084Z,-20390.06
2022-09-25T09:33:31.150Z,-20391.75
2022-09-25T09:36:09.277Z,-20405.31
2022-09-25T09:38:44.182Z,-20394.66
2022-09-25T09:41:21.687Z,-20393.44
2022-09-25T09:44:14.768Z,-20392.53
2022-09-25T09:46:50.976Z,-20392.53
2022-09-25T09:49:27.055Z,-20389.00
2022-09-25T09:51:59.181Z,-20390.38
2022-09-25T09:54:35.855Z,-20374.53
2022-09-25T09:57:13.955Z,-20374.84
2022-09-25T09:59:46.809Z,-20385.19
2022-09-25T10:02:26.423Z,-20389.78
2022-09-25T10:04:56.604Z,-20383.69
2022-09-25T10:07:27.709Z,-20380.03
2022-09-25T10:09:55.663Z,-20375.75
2022-09-25T10:12:30.036Z,-20385.81
2022-09-25T10:15:00.702Z,-20384.44
2022-09-25T10:17:30.603Z,-20380.63
2022-09-25T10:20:01.984Z,-20381.84
2022-09-25T10:22:35.217Z,-20380.94
2022-09-25T10:25:03.043Z,-20383.06
2022-09-25T10:27:35.756Z,-20388.41
2022-09-25T10:30:18.577Z,-20389.16
2022-09-25T10:32:57.087Z,-20387.19
2022-09-25T10:35:28.565Z,-20401.50
2022-09-25T10:37:58.563Z,-20397.69
2022-09-25T10:40:31.668Z,-20407.91
2022-09-25T10:43:23.489Z,-20410.81
2022-09-25T10:45:54.136Z,-20414.16
2022-09-25T10:48:48.399Z,-20415.66
2022-09-25T10:51:18.251Z,-20402.72
2022-09-25T10:53:47.168Z,-20401.66
2022-09-25T10:56:20.391Z,-20402.13
2022-09-25T10:58:54.883Z,-20391.28
2022-09-25T11:01:30.411Z,-20398.16
2022-09-25T11:03:59.712Z,-20403.34
2022-09-25T11:06:29.247Z,-20410.19
2022-09-25T11:09:11.361Z,-20412.47
2022-09-25T11:11:40.882Z,-20412.94
2022-09-25T11:14:22.323Z,-20411.88
2022-09-25T11:16:53.105Z,-20418.88
2022-09-25T11:19:28.854Z,-20422.97
2022-09-25T11:22:08.072Z,-20425.88
2022-09-25T11:24:55.899Z,-20431.22
2022-09-25T11:27:33.967Z,-20433.03
2022-09-25T11:30:07.209Z,-20428.91
2022-09-25T11:32:50.245Z,-20430.59
2022-09-25T11:35:34.573Z,-20439.41
2022-09-25T11:38:09.796Z,-20441.88
2022-09-25T11:41:08.960Z,-20448.84
2022-09-25T11:43:46.877Z,-20451.13
2022-09-25T11:46:23.352Z,-20442.91
2022-09-25T11:49:01.785Z,-20448.25
2022-09-25T11:51:58.156Z,-20453.13
2022-09-25T11:54:36.459Z,-20455.56
2022-09-25T11:57:10.482Z,-20466.50
2022-09-25T11:59:49.270Z,-20465.91
2022-09-25T12:02:26.043Z,-20459.97
2022-09-25T12:05:19.371Z,-20470.75
2022-09-25T12:08:09.173Z,-20464.69
2022-09-25T12:10:47.840Z,-20455.09
2022-09-25T12:13:23.345Z,-20442.00
2022-09-25T12:16:02.935Z,-20440.78
2022-09-25T12:18:50.425Z,-20440.19
2022-09-25T12:21:24.619Z,-20435.78
2022-09-25T12:23:59.507Z,-20435.16
2022-09-25T12:26:35.254Z,-20437.00
2022-09-25T12:29:14.331Z,-20440.63
2022-09-25T12:31:53.553Z,-20424.34
2022-09-25T12:34:38.273Z,-20437.75
2022-09-25T12:37:23.051Z,-20431.06
2022-09-25T12:39:58.107Z,-20419.19
2022-09-25T12:42:36.446Z,-20418.09
2022-09-25T12:45:16.208Z,-20411.88
2022-09-25T12:47:48.553Z,-20414.91
2022-09-25T12:50:21.877Z,-20416.13
2022-09-25T12:52:53.741Z,-20411.25
2022-09-25T12:55:27.151Z,-20409.59
2022-09-25T12:58:10.268Z,-20406.84
2022-09-25T13:00:42.774Z,-20396.78
2022-09-25T13:03:17.550Z,-20399.53
2022-09-25T13:05:52.952Z,-20399.97
2022-09-25T13:08:24.434Z,-20403.50
2022-09-25T13:10:57.469Z,-20408.34
2022-09-25T13:13:30.623Z,-20406.84
2022-09-25T13:15:59.843Z,-20411.88
2022-09-25T13:18:29.304Z,-20422.84
2022-09-25T13:21:01.479Z,-20439.72
2022-09-25T13:23:33.492Z,-20442.47
2022-09-25T13:26:09.728Z,-20442.47
2022-09-25T13:28:40.356Z,-20441.09
2022-09-25T13:31:12.119Z,-20437.28
2022-09-25T13:33:47.283Z,-20432.44
2022-09-25T13:36:30.431Z,-20430.91
2022-09-25T13:39:17.709Z,-20430.28
2022-09-25T13:41:53.343Z,-20420.09
2022-09-25T13:45:07.733Z,-20408.34
2022-09-25T13:48:05.997Z,-20397.38
2022-09-25T13:50:45.219Z,-20391.44
2022-09-25T13:53:21.279Z,-20382.75
2022-09-25T13:56:23.535Z,-20378.03
2022-09-25T13:59:22.132Z,-20369.34
2022-09-25T14:01:59.732Z,-20368.59
2022-09-25T14:04:37.793Z,-20366.31
2022-09-25T14:07:25.555Z,-20360.19
2022-09-25T14:09:57.514Z,-20358.38
2022-09-25T14:12:29.983Z,-20351.66
2022-09-25T14:15:01.109Z,-20356.53
2022-09-25T14:17:32.375Z,-20354.72
2022-09-25T14:20:01.900Z,-20357.91
2022-09-25T14:22:39.207Z,-20363.88
2022-09-25T14:25:28.352Z,-20362.63
2022-09-25T14:27:56.138Z,-20364.94
2022-09-25T14:30:28.873Z,-20370.13
2022-09-25T14:33:11.158Z,-20364.63
2022-09-25T14:35:45.291Z,-20361.41
2022-09-25T14:38:36.959Z,-20370.41
2022-09-25T14:41:23.695Z,-20370.88
2022-09-25T14:44:18.279Z,-20363.25
2022-09-25T14:46:50.435Z,-20371.19
2022-09-25T14:49:25.034Z,-20368.59
2022-09-25T14:51:55.947Z,-20366.44
2022-09-25T14:54:26.972Z,-20367.81
2022-09-25T14:56:58.957Z,-20369.03
2022-09-25T14:59:33.202Z,-20367.97
2022-09-25T15:02:03.362Z,-20371.19
2022-09-25T15:04:33.230Z,-20373.00
2022-09-25T15:07:03.540Z,-20378.66
2022-09-25T15:09:36.937Z,-20380.63
2022-09-25T15:12:18.589Z,-20378.03
2022-09-25T15:15:04.365Z,-20375.91
2022-09-25T15:17:33.437Z,-20380.31
2022-09-25T15:20:03.583Z,-20378.81
2022-09-25T15:22:35.281Z,-20382.75
2022-09-25T15:25:05.384Z,-20383.22
2022-09-25T15:27:37.447Z,-20389.78
2022-09-25T15:30:06.547Z,-20384.59
2022-09-25T15:32:39.340Z,-20385.34
2022-09-25T15:35:15.522Z,-20383.38
2022-09-25T15:37:43.219Z,-20378.66
2022-09-25T15:40:19.985Z,-20383.97
2022-09-25T15:42:50.596Z,-20381.84
2022-09-25T15:45:44.823Z,-20382.75
2022-09-25T15:48:22.143Z,-20379.41
2022-09-25T15:50:51.050Z,-20373.63
2022-09-25T15:53:23.430Z,-20377.28
2022-09-25T15:55:51.873Z,-20376.50
2022-09-25T15:58:21.895Z,-20376.06
2022-09-25T16:01:16.500Z,-20373.31
2022-09-25T16:04:07.787Z,-20376.50
2022-09-25T16:06:40.301Z,-20379.56
2022-09-25T16:09:21.455Z,-20377.88
2022-09-25T16:11:50.042Z,-20376.97
2022-09-25T16:14:23.068Z,-20371.03
2022-09-25T16:16:51.910Z,-20366.16
2022-09-25T16:19:30.611Z,-20368.13
2022-09-25T16:22:00.110Z,-20366.31
2022-09-25T16:24:29.750Z,-20366.31
2022-09-25T16:26:59.598Z,-20364.16
2022-09-25T16:29:30.747Z,-20362.34
2022-09-25T16:32:03.759Z,-20363.88
2022-09-25T16:34:35.090Z,-20362.03
2022-09-25T16:37:04.686Z,-20360.66
2022-09-25T16:39:34.786Z,-20358.22
2022-09-25T16:42:27.650Z,-20358.38
2022-09-25T16:45:04.033Z,-20355.31
2022-09-25T16:47:32.174Z,-20354.41
2022-09-25T16:49:59.718Z,-20358.38
2022-09-25T16:52:32.385Z,-20350.75
2022-09-25T16:55:01.034Z,-20349.53
2022-09-25T16:57:29.232Z,-20348.00
2022-09-25T16:59:56.893Z,-20347.22
2022-09-25T17:02:33.121Z,-20348.31
2022-09-25T17:05:04.095Z,-20347.84
2022-09-25T17:07:31.736Z,-20342.81
2022-09-25T17:10:00.892Z,-20337.91
2022-09-25T17:12:31.119Z,-20335.94
2022-09-25T17:14:59.392Z,-20341.75
2022-09-25T17:17:29.633Z,-20334.88
2022-09-25T17:19:57.270Z,-20332.59
2022-09-25T17:22:29.438Z,-20331.81
2022-09-25T17:25:01.953Z,-20327.84
2022-09-25T17:27:29.502Z,-20330.44
2022-09-25T17:29:57.139Z,-20328.31
2022-09-25T17:32:24.699Z,-20327.25
2022-09-25T17:34:54.146Z,-20326.94
2022-09-25T17:37:21.683Z,-20328.16
2022-09-25T17:39:49.278Z,-20326.63
2022-09-25T17:42:17.182Z,-20323.88
2022-09-25T17:44:47.409Z,-20323.88
2022-09-25T17:47:16.304Z,-20321.13
2022-09-25T17:49:43.899Z,-20323.41
2022-09-25T17:52:20.957Z,-20319.59
2022-09-25T17:54:48.739Z,-20320.69
2022-09-25T17:57:16.537Z,-20322.19
2022-09-25T17:59:44.180Z,-20321.75
2022-09-25T18:02:16.830Z,-20323.72
2022-09-25T18:04:44.934Z,-20320.81
2022-09-25T18:07:15.275Z,-20322.97
2022-09-25T18:09:43.007Z,-20320.06
2022-09-25T18:12:10.937Z,-20319.91
2022-09-25T18:14:38.792Z,-20316.56
2022-09-25T18:17:06.485Z,-20314.72
2022-09-25T18:19:51.561Z,-20320.22
2022-09-25T18:22:25.187Z,-20317.31
2022-09-25T18:24:56.386Z,-20318.38
2022-09-25T18:27:25.252Z,-20317.94
2022-09-25T18:29:53.100Z,-20313.97
2022-09-25T18:32:21.108Z,-20314.56
2022-09-25T18:34:48.823Z,-20312.59
2022-09-25T18:37:16.728Z,-20310.75
2022-09-25T18:39:47.914Z,-20309.84
2022-09-25T18:42:15.973Z,-20312.88
2022-09-25T18:44:43.731Z,-20314.41
2022-09-25T18:47:11.684Z,-20310.91
2022-09-25T18:49:39.493Z,-20308.31
2022-09-25T18:52:08.086Z,-20306.31
2022-09-25T18:54:35.866Z,-20305.25
2022-09-25T18:57:05.246Z,-20303.13
2022-09-25T18:59:32.889Z,-20301.75
2022-09-25T19:02:01.074Z,-20302.19
2022-09-25T19:04:28.957Z,-20300.69
2022-09-25T19:06:56.991Z,-20300.06
2022-09-25T19:09:27.491Z,-20300.06
2022-09-25T19:11:56.080Z,-20298.53
2022-09-25T19:14:25.511Z,-20300.22
2022-09-25T19:16:53.471Z,-20298.84
2022-09-25T19:19:21.231Z,-20298.53
2022-09-25T19:21:49.098Z,-20299.44
2022-09-25T19:24:18.324Z,-20298.22
2022-09-25T19:26:46.280Z,-20298.69
2022-09-25T19:29:14.066Z,-20295.78
2022-09-25T19:31:43.291Z,-20293.94
2022-09-25T19:34:11.385Z,-20293.03
2022-09-25T19:36:39.268Z,-20293.34
2022-09-25T19:39:07.097Z,-20293.03
2022-09-25T19:41:37.963Z,-20293.03
2022-09-25T19:44:13.183Z,-20292.41
2022-09-25T19:46:43.013Z,-20293.66
2022-09-25T19:49:11.057Z,-20293.50
2022-09-25T19:51:38.828Z,-20293.66
2022-09-25T19:54:07.461Z,-20295.16
2022-09-25T19:56:37.262Z,-20294.56
2022-09-25T19:59:05.444Z,-20293.66
2022-09-25T20:01:33.077Z,-20292.72
2022-09-25T20:04:06.602Z,-20292.13
2022-09-25T20:06:36.915Z,-20291.50
2022-09-25T20:09:05.947Z,-20292.13
2022-09-25T20:11:35.150Z,-20291.34
2022-09-25T20:14:04.255Z,-20291.22
2022-09-25T20:16:32.418Z,-20289.22
2022-09-25T20:19:03.885Z,-20289.38
2022-09-25T20:21:34.537Z,-20288.75
2022-09-25T20:24:04.180Z,-20289.06
2022-09-25T20:26:32.918Z,-20289.53
2022-09-25T20:29:02.087Z,-20289.81
2022-09-25T20:31:32.265Z,-20288.75
2022-09-25T20:34:00.013Z,-20289.06
2022-09-25T20:36:29.141Z,-20288.47
2022-09-25T20:38:57.971Z,-20286.63
2022-09-25T20:41:27.009Z,-20286.94
2022-09-25T20:43:56.311Z,-20287.22
2022-09-25T20:46:24.926Z,-20287.22
2022-09-25T20:48:53.852Z,-20287.22
2022-09-25T20:51:24.081Z,-20286.31
2022-09-25T20:53:54.682Z,-20286.63
2022-09-25T20:56:22.930Z,-20285.41
2022-09-25T20:58:53.466Z,-20283.72
2022-09-25T21:01:23.714Z,-20284.03
2022-09-25T21:03:52.443Z,-20284.31
2022-09-25T21:06:21.754Z,-20284.47
2022-09-25T21:08:54.161Z,-20282.94
2022-09-25T21:11:22.176Z,-20281.88
2022-09-25T21:13:52.263Z,-20280.81
2022-09-25T21:16:21.671Z,-20280.19
2022-09-25T21:18:53.224Z,-20278.97
2022-09-25T21:21:20.853Z,-20280.03
2022-09-25T21:23:49.995Z,-20278.53
2022-09-25T21:26:19.521Z,-20280.03
2022-09-25T21:28:48.259Z,-20279.44
2022-09-25T21:31:17.724Z,-20277.91
2022-09-25T21:33:45.533Z,-20278.81
2022-09-25T21:36:14.761Z,-20278.06
2022-09-25T21:38:42.709Z,-20277.75
2022-09-25T21:41:19.847Z,-20277.28
2022-09-25T21:43:48.452Z,-20277.91
2022-09-25T21:46:18.241Z,-20276.84
2022-09-25T21:48:49.693Z,-20277.44
2022-09-25T21:51:18.451Z,-20276.69
2022-09-25T21:53:46.465Z,-20276.22
2022-09-25T21:56:18.289Z,-20276.38
2022-09-25T21:58:47.794Z,-20276.53
2022-09-25T22:01:18.327Z,-20275.31
2022-09-25T22:03:49.810Z,-20274.09
2022-09-25T22:06:20.025Z,-20274.38
2022-09-25T22:08:49.762Z,-20272.56
2022-09-25T22:11:18.985Z,-20272.56
2022-09-25T22:13:49.277Z,-20271.03
2022-09-25T22:16:18.982Z,-20270.56
2022-09-25T22:18:48.501Z,-20268.75
2022-09-25T22:21:18.970Z,-20268.59
2022-09-25T22:23:47.358Z,-20267.81
2022-09-25T22:26:16.654Z,-20267.81
2022-09-25T22:28:44.410Z,-20264.91
2022-09-25T22:31:16.643Z,-20264.91
2022-09-25T22:33:44.747Z,-20264.59
2022-09-25T22:36:13.164Z,-20262.78
2022-09-25T22:38:41.338Z,-20261.84
2022-09-25T22:41:12.007Z,-20260.63
2022-09-25T22:43:40.643Z,-20263.53
2022-09-25T22:46:10.238Z,-20264.00
2022-09-25T22:48:39.618Z,-20262.78
2022-09-25T22:51:09.214Z,-20261.25
2022-09-25T22:53:37.263Z,-20260.94
2022-09-25T22:56:12.526Z,-20258.34
2022-09-25T22:58:40.454Z,-20256.03
2022-09-25T23:01:11.882Z,-20254.69
2022-09-25T23:03:40.981Z,-20252.69
2022-09-25T23:06:09.334Z,-20253.44
2022-09-25T23:08:37.352Z,-20252.69
2022-09-25T23:11:08.097Z,-20254.53
2022-09-25T23:13:37.221Z,-20254.38
2022-09-25T23:16:07.301Z,-20255.13
2022-09-25T23:18:35.372Z,-20253.28
2022-09-25T23:21:05.078Z,-20252.53
2022-09-25T23:23:33.406Z,-20252.06
2022-09-25T23:26:06.186Z,-20253.44
2022-09-25T23:28:34.940Z,-20253.44
2022-09-25T23:31:07.744Z,-20250.38
2022-09-25T23:33:35.412Z,-20250.84
2022-09-25T23:36:06.594Z,-20249.63
2022-09-25T23:38:34.850Z,-20248.41
2022-09-25T23:41:02.690Z,-20247.63
2022-09-25T23:43:30.351Z,-20246.25
2022-09-25T23:45:57.995Z,-20246.09
2022-09-25T23:48:25.619Z,-20245.66
2022-09-25T23:50:53.141Z,-20243.81
2022-09-25T23:53:22.071Z,-20246.09
2022-09-25T23:55:50.970Z,-20247.50
2022-09-25T23:58:19.021Z,-20247.03
